sensor_id;sensor_type;location;lat;lon;timestamp;temperature;humidity
68199;HTU21D;55021;51.554;17.044;2022-11-20T00:10:18;1.09;62.33
68199;HTU21D;55021;51.554;17.044;2022-11-20T00:25:20;1.18;61.51
68199;HTU21D;55021;51.554;17.044;2022-11-20T00:40:23;1.07;61.47
68199;HTU21D;55021;51.554;17.044;2022-11-20T00:55:25;1.14;61.19
68199;HTU21D;55021;51.554;17.044;2022-11-20T01:10:29;0.64;62.76
68199;HTU21D;55021;51.554;17.044;2022-11-20T01:25:31;0.42;63.84
68199;HTU21D;55021;51.554;17.044;2022-11-20T01:40:35;0.22;65.33
68199;HTU21D;55021;51.554;17.044;2022-11-20T01:55:41;0.33;64.29
68199;HTU21D;55021;51.554;17.044;2022-11-20T02:10:44;0.17;64.13
68199;HTU21D;55021;51.554;17.044;2022-11-20T02:25:47;0.18;64.03
68199;HTU21D;55021;51.554;17.044;2022-11-20T02:40:50;-0.02;64.17
68199;HTU21D;55021;51.554;17.044;2022-11-20T02:55:52;-0.46;66.21
68199;HTU21D;55021;51.554;17.044;2022-11-20T03:10:55;-0.41;66.14
68199;HTU21D;55021;51.554;17.044;2022-11-20T03:26:07;-0.53;66.11
68199;HTU21D;55021;51.554;17.044;2022-11-20T03:41:11;-0.16;64.56
68199;HTU21D;55021;51.554;17.044;2022-11-20T03:56:30;-0.54;65.15
68199;HTU21D;55021;51.554;17.044;2022-11-20T04:11:34;-0.51;65.94
68199;HTU21D;55021;51.554;17.044;2022-11-20T04:26:37;-0.55;66.72
68199;HTU21D;55021;51.554;17.044;2022-11-20T04:41:40;-0.08;64.58
68199;HTU21D;55021;51.554;17.044;2022-11-20T04:56:42;0.10;64.77
68199;HTU21D;55021;51.554;17.044;2022-11-20T05:11:45;0.24;64.33
68199;HTU21D;55021;51.554;17.044;2022-11-20T05:26:47;-0.21;65.40
68199;HTU21D;55021;51.554;17.044;2022-11-20T05:41:50;-0.62;66.74
68199;HTU21D;55021;51.554;17.044;2022-11-20T05:56:52;-0.28;65.31
68199;HTU21D;55021;51.554;17.044;2022-11-20T06:11:55;-0.37;65.74
68199;HTU21D;55021;51.554;17.044;2022-11-20T06:26:57;-0.15;64.56
68199;HTU21D;55021;51.554;17.044;2022-11-20T06:42:00;0.04;63.22
68199;HTU21D;55021;51.554;17.044;2022-11-20T06:57:02;0.38;62.80
68199;HTU21D;55021;51.554;17.044;2022-11-20T07:12:05;0.92;61.34
68199;HTU21D;55021;51.554;17.044;2022-11-20T07:27:08;0.94;63.66
68199;HTU21D;55021;51.554;17.044;2022-11-20T07:42:10;1.25;62.38
68199;HTU21D;55021;51.554;17.044;2022-11-20T07:57:14;1.52;60.53
68199;HTU21D;55021;51.554;17.044;2022-11-20T08:12:21;2.53;57.63
68199;HTU21D;55021;51.554;17.044;2022-11-20T08:27:23;2.25;56.72
68199;HTU21D;55021;51.554;17.044;2022-11-20T08:42:26;2.54;57.39
68199;HTU21D;55021;51.554;17.044;2022-11-20T08:57:31;3.12;55.86
68199;HTU21D;55021;51.554;17.044;2022-11-20T09:12:34;3.54;54.59
68199;HTU21D;55021;51.554;17.044;2022-11-20T09:27:36;3.42;53.75
68199;HTU21D;55021;51.554;17.044;2022-11-20T09:42:43;4.03;52.43
68199;HTU21D;55021;51.554;17.044;2022-11-20T09:57:49;4.32;52.91
68199;HTU21D;55021;51.554;17.044;2022-11-20T10:13:05;5.54;49.18
68199;HTU21D;55021;51.554;17.044;2022-11-20T10:28:20;5.59;49.18
68199;HTU21D;55021;51.554;17.044;2022-11-20T10:43:32;5.74;44.03
68199;HTU21D;55021;51.554;17.044;2022-11-20T10:58:46;5.55;44.89
68199;HTU21D;55021;51.554;17.044;2022-11-20T11:13:51;5.97;43.67
68199;HTU21D;55021;51.554;17.044;2022-11-20T11:28:55;5.70;46.38
68199;HTU21D;55021;51.554;17.044;2022-11-20T11:44:03;5.87;41.98
68199;HTU21D;55021;51.554;17.044;2022-11-20T11:59:23;6.28;40.84
68199;HTU21D;55021;51.554;17.044;2022-11-20T12:14:32;6.22;41.95
68199;HTU21D;55021;51.554;17.044;2022-11-20T12:29:44;6.05;43.49
68199;HTU21D;55021;51.554;17.044;2022-11-20T12:45:12;5.94;46.12
68199;HTU21D;55021;51.554;17.044;2022-11-20T13:00:19;5.96;46.28
68199;HTU21D;55021;51.554;17.044;2022-11-20T13:15:44;5.82;45.82
68199;HTU21D;55021;51.554;17.044;2022-11-20T13:30:52;5.99;45.46
68199;HTU21D;55021;51.554;17.044;2022-11-20T13:45:59;5.61;46.22
68199;HTU21D;55021;51.554;17.044;2022-11-20T14:01:11;5.49;47.19
68199;HTU21D;55021;51.554;17.044;2022-11-20T14:16:20;5.32;48.05
68199;HTU21D;55021;51.554;17.044;2022-11-20T14:31:26;5.33;48.23
68199;HTU21D;55021;51.554;17.044;2022-11-20T14:46:30;5.06;49.47
68199;HTU21D;55021;51.554;17.044;2022-11-20T15:01:33;4.51;50.77
68199;HTU21D;55021;51.554;17.044;2022-11-20T15:16:36;3.93;52.93
68199;HTU21D;55021;51.554;17.044;2022-11-20T15:31:39;3.43;53.82
68199;HTU21D;55021;51.554;17.044;2022-11-20T15:46:42;2.87;55.32
68199;HTU21D;55021;51.554;17.044;2022-11-20T16:01:45;2.50;56.63
68199;HTU21D;55021;51.554;17.044;2022-11-20T16:16:48;2.38;56.20
68199;HTU21D;55021;51.554;17.044;2022-11-20T16:31:50;2.13;57.69
68199;HTU21D;55021;51.554;17.044;2022-11-20T16:46:53;1.82;58.33
68199;HTU21D;55021;51.554;17.044;2022-11-20T17:01:56;1.51;59.53
68199;HTU21D;55021;51.554;17.044;2022-11-20T17:16:58;1.27;60.02
68199;HTU21D;55021;51.554;17.044;2022-11-20T17:32:01;0.89;62.19
68199;HTU21D;55021;51.554;17.044;2022-11-20T17:47:04;1.07;63.20
68199;HTU21D;55021;51.554;17.044;2022-11-20T18:02:06;1.53;61.19
68199;HTU21D;55021;51.554;17.044;2022-11-20T18:17:10;1.45;61.90
68199;HTU21D;55021;51.554;17.044;2022-11-20T18:32:14;1.02;63.46
68199;HTU21D;55021;51.554;17.044;2022-11-20T18:47:19;0.76;63.11
68199;HTU21D;55021;51.554;17.044;2022-11-20T19:02:22;0.78;64.53
68199;HTU21D;55021;51.554;17.044;2022-11-20T19:17:25;1.13;63.41
68199;HTU21D;55021;51.554;17.044;2022-11-20T19:32:28;1.64;61.15
68199;HTU21D;55021;51.554;17.044;2022-11-20T19:47:31;1.36;61.23
68199;HTU21D;55021;51.554;17.044;2022-11-20T20:02:33;0.87;61.79
68199;HTU21D;55021;51.554;17.044;2022-11-20T20:17:36;0.90;62.50
68199;HTU21D;55021;51.554;17.044;2022-11-20T20:32:38;0.15;62.89
68199;HTU21D;55021;51.554;17.044;2022-11-20T20:47:41;-0.03;63.05
68199;HTU21D;55021;51.554;17.044;2022-11-20T21:02:43;-0.30;63.16
68199;HTU21D;55021;51.554;17.044;2022-11-20T21:17:46;-0.26;62.83
68199;HTU21D;55021;51.554;17.044;2022-11-20T21:32:48;-0.45;64.48
68199;HTU21D;55021;51.554;17.044;2022-11-20T21:47:51;-0.57;64.83
68199;HTU21D;55021;51.554;17.044;2022-11-20T22:02:54;-0.37;64.18
68199;HTU21D;55021;51.554;17.044;2022-11-20T22:17:56;-0.75;66.28
68199;HTU21D;55021;51.554;17.044;2022-11-20T22:32:59;-0.72;64.56
68199;HTU21D;55021;51.554;17.044;2022-11-20T22:48:01;-0.52;63.98
68199;HTU21D;55021;51.554;17.044;2022-11-20T23:03:04;-0.60;64.17
68199;HTU21D;55021;51.554;17.044;2022-11-20T23:18:07;-0.84;64.22
68199;HTU21D;55021;51.554;17.044;2022-11-20T23:33:09;-0.84;65.17
68199;HTU21D;55021;51.554;17.044;2022-11-20T23:48:12;-0.93;64.11
